createdAt,value
2023-01-03T00:01:47.435Z,100.00
2023-01-03T00:03:49.762Z,100.00
2023-01-03T00:05:51.384Z,100.00
2023-01-03T00:07:52.936Z,100.00
2023-01-03T00:09:54.265Z,100.00
2023-01-03T00:11:56.085Z,100.00
2023-01-03T00:13:57.633Z,100.00
2023-01-03T00:16:00.541Z,100.00
2023-01-03T00:18:02.420Z,100.00
2023-01-03T00:20:04.991Z,100.00
2023-01-03T00:22:08.874Z,100.00
2023-01-03T00:24:11.270Z,100.00
2023-01-03T00:26:14.676Z,99.23
2023-01-03T00:28:16.175Z,98.36
2023-01-03T00:30:17.517Z,98.22
2023-01-03T00:32:20.783Z,98.55
2023-01-03T00:34:22.579Z,97.15
2023-01-03T00:36:24.176Z,98.46
2023-01-03T00:38:25.712Z,98.20
2023-01-03T00:40:27.050Z,98.13
2023-01-03T00:42:28.595Z,98.33
2023-01-03T00:44:29.968Z,99.07
2023-01-03T00:46:32.762Z,97.69
2023-01-03T00:48:36.649Z,98.36
2023-01-03T00:50:38.171Z,98.23
2023-01-03T00:52:39.491Z,99.41
2023-01-03T00:54:41.035Z,98.80
2023-01-03T00:56:43.095Z,98.68
2023-01-03T00:58:45.356Z,99.20
2023-01-03T01:00:46.925Z,98.87
2023-01-03T01:02:48.407Z,99.41
2023-01-03T01:04:53.559Z,99.64
2023-01-03T01:06:58.607Z,99.71
2023-01-03T01:09:01.922Z,99.91
2023-01-03T01:11:03.754Z,99.51
2023-01-03T01:13:05.302Z,99.38
2023-01-03T01:15:07.204Z,99.69
2023-01-03T01:17:09.395Z,99.84
2023-01-03T01:19:11.453Z,100.00
2023-01-03T01:21:16.667Z,100.00
2023-01-03T01:23:18.190Z,100.00
2023-01-03T01:25:19.541Z,100.00
2023-01-03T01:27:21.164Z,100.00
2023-01-03T01:29:22.910Z,100.00
2023-01-03T01:31:26.547Z,100.00
2023-01-03T01:33:28.642Z,100.00
2023-01-03T01:35:30.318Z,100.00
2023-01-03T01:37:33.245Z,100.00
2023-01-03T01:39:34.954Z,100.00
2023-01-03T01:41:37.341Z,100.00
2023-01-03T01:43:56.607Z,100.00
2023-01-03T01:46:11.070Z,100.00
2023-01-03T01:48:13.710Z,100.00
2023-01-03T01:50:20.724Z,100.00
2023-01-03T01:52:23.474Z,100.00
2023-01-03T01:54:26.488Z,100.00
2023-01-03T01:56:31.071Z,100.00
2023-01-03T01:58:36.271Z,100.00
2023-01-03T02:00:39.683Z,100.00
2023-01-03T02:02:43.450Z,100.00
2023-01-03T02:04:47.673Z,100.00
2023-01-03T02:06:50.851Z,100.00
2023-01-03T02:08:52.366Z,100.00
2023-01-03T02:11:06.042Z,100.00
2023-01-03T02:13:17.119Z,100.00
2023-01-03T02:15:46.033Z,100.00
2023-01-03T02:18:02.177Z,100.00
2023-01-03T02:20:20.967Z,100.00
2023-01-03T02:22:41.773Z,100.00
2023-01-03T02:25:02.179Z,99.84
2023-01-03T02:27:19.540Z,99.33
2023-01-03T02:29:48.572Z,98.82
2023-01-03T02:32:01.115Z,99.33
2023-01-03T02:34:08.024Z,99.12
2023-01-03T02:36:17.108Z,98.77
2023-01-03T02:38:25.926Z,98.91
2023-01-03T02:40:34.766Z,100.00
2023-01-03T02:42:43.215Z,98.53
2023-01-03T02:44:55.247Z,97.74
2023-01-03T02:47:02.963Z,94.80
2023-01-03T02:49:08.809Z,94.34
2023-01-03T02:51:15.212Z,93.60
2023-01-03T02:53:25.717Z,92.97
2023-01-03T02:55:30.695Z,93.75
2023-01-03T02:57:38.915Z,95.09
2023-01-03T02:59:45.717Z,95.43
2023-01-03T03:01:50.579Z,95.05
2023-01-03T03:03:54.540Z,96.57
2023-01-03T03:06:04.483Z,96.92
2023-01-03T03:08:07.063Z,97.52
2023-01-03T03:10:11.375Z,98.72
2023-01-03T03:12:12.928Z,100.00
2023-01-03T03:14:17.070Z,100.00
2023-01-03T03:16:21.571Z,99.63
2023-01-03T03:18:29.935Z,99.31
2023-01-03T03:20:32.885Z,98.89
2023-01-03T03:22:40.975Z,98.63
2023-01-03T03:24:42.684Z,98.35
2023-01-03T03:26:45.178Z,97.22
2023-01-03T03:28:50.811Z,95.22
2023-01-03T03:30:55.813Z,93.95
2023-01-03T03:33:00.163Z,95.62
2023-01-03T03:35:04.738Z,94.71
2023-01-03T03:37:14.565Z,92.39
2023-01-03T03:39:17.440Z,93.21
2023-01-03T03:41:26.727Z,93.09
2023-01-03T03:43:34.310Z,93.90
2023-01-03T03:45:41.782Z,92.81
2023-01-03T03:47:47.867Z,92.57
2023-01-03T03:49:56.331Z,93.29
2023-01-03T03:52:01.354Z,93.96
2023-01-03T03:54:09.786Z,93.27
2023-01-03T03:56:16.427Z,93.26
2023-01-03T03:58:21.972Z,92.32
2023-01-03T04:00:27.841Z,93.46
2023-01-03T04:02:33.197Z,92.71
2023-01-03T04:04:38.999Z,93.99
2023-01-03T04:06:43.521Z,94.95
2023-01-03T04:08:45.743Z,93.47
2023-01-03T04:10:49.074Z,94.59
2023-01-03T04:12:51.810Z,94.24
2023-01-03T04:14:53.426Z,94.91
2023-01-03T04:16:54.950Z,94.38
2023-01-03T04:18:56.594Z,95.08
2023-01-03T04:20:57.964Z,94.45
2023-01-03T04:22:59.628Z,95.73
2023-01-03T04:25:00.998Z,94.81
2023-01-03T04:27:03.980Z,94.60
2023-01-03T04:29:05.554Z,95.25
2023-01-03T04:31:07.171Z,95.14
2023-01-03T04:33:08.604Z,94.64
2023-01-03T04:35:10.142Z,94.77
2023-01-03T04:37:11.763Z,95.14
2023-01-03T04:39:13.110Z,96.10
2023-01-03T04:41:14.698Z,95.92
2023-01-03T04:43:17.757Z,96.49
2023-01-03T04:45:19.335Z,96.61
2023-01-03T04:47:20.899Z,97.25
2023-01-03T04:49:22.442Z,97.92
2023-01-03T04:51:24.195Z,97.26
2023-01-03T04:53:27.413Z,97.15
2023-01-03T04:55:28.975Z,98.01
2023-01-03T04:57:30.531Z,98.34
2023-01-03T04:59:33.866Z,98.55
2023-01-03T05:01:35.568Z,98.64
2023-01-03T05:03:37.249Z,99.48
2023-01-03T05:05:39.420Z,99.96
2023-01-03T05:07:41.025Z,99.71
2023-01-03T05:09:43.533Z,100.00
2023-01-03T05:11:45.085Z,100.00
2023-01-03T05:13:46.703Z,99.93
2023-01-03T05:15:49.724Z,99.39
2023-01-03T05:17:51.265Z,98.98
2023-01-03T05:19:52.601Z,100.00
2023-01-03T05:21:54.104Z,100.00
2023-01-03T05:23:55.650Z,100.00
2023-01-03T05:25:57.802Z,100.00
2023-01-03T05:28:00.972Z,100.00
2023-01-03T05:30:02.659Z,100.00
2023-01-03T05:32:05.957Z,100.00
2023-01-03T05:34:07.527Z,100.00
2023-01-03T05:36:09.951Z,100.00
2023-01-03T05:38:11.589Z,100.00
2023-01-03T05:40:12.977Z,100.00
2023-01-03T05:42:14.513Z,100.00
2023-01-03T05:44:16.850Z,100.00
2023-01-03T05:46:18.424Z,100.00
2023-01-03T05:48:21.965Z,100.00
2023-01-03T05:50:23.583Z,100.00
2023-01-03T05:52:24.884Z,100.00
2023-01-03T05:54:26.400Z,100.00
2023-01-03T05:56:27.979Z,100.00
2023-01-03T05:58:29.309Z,100.00
2023-01-03T06:00:30.840Z,100.00
2023-01-03T06:02:32.691Z,100.00
2023-01-03T06:04:35.741Z,100.00
2023-01-03T06:06:37.283Z,100.00
2023-01-03T06:08:39.036Z,100.00
2023-01-03T06:10:40.596Z,100.00
2023-01-03T06:12:42.128Z,100.00
2023-01-03T06:14:43.701Z,100.00
2023-01-03T06:16:45.380Z,100.00
2023-01-03T06:18:46.937Z,100.00
2023-01-03T06:20:50.345Z,100.00
2023-01-03T06:22:52.606Z,100.00
2023-01-03T06:24:54.161Z,100.00
2023-01-03T06:26:55.532Z,100.00
2023-01-03T06:28:57.066Z,100.00
2023-01-03T06:30:58.682Z,100.00
2023-01-03T06:33:00.399Z,100.00
2023-01-03T06:35:01.737Z,100.00
2023-01-03T06:37:04.662Z,100.00
2023-01-03T06:39:06.281Z,100.00
2023-01-03T06:41:07.980Z,100.00
2023-01-03T06:43:09.532Z,100.00
2023-01-03T06:45:13.221Z,100.00
2023-01-03T06:47:14.704Z,100.00
2023-01-03T06:49:18.246Z,100.00
2023-01-03T06:51:21.509Z,100.00
2023-01-03T06:53:24.753Z,100.00
2023-01-03T06:55:26.278Z,100.00
2023-01-03T06:57:27.912Z,100.00
2023-01-03T06:59:29.901Z,100.00
2023-01-03T07:01:31.606Z,100.00
2023-01-03T07:03:33.727Z,100.00
2023-01-03T07:05:35.328Z,100.00
2023-01-03T07:07:36.658Z,100.00
2023-01-03T07:09:39.607Z,100.00
2023-01-03T07:11:42.168Z,100.00
2023-01-03T07:13:43.688Z,100.00
2023-01-03T07:15:45.628Z,100.00
2023-01-03T07:17:47.218Z,100.00
2023-01-03T07:19:50.610Z,100.00
2023-01-03T07:21:52.129Z,100.00
2023-01-03T07:23:54.481Z,100.00
2023-01-03T07:25:57.403Z,100.00
2023-01-03T07:28:05.541Z,100.00
2023-01-03T07:30:08.489Z,100.00
2023-01-03T07:32:09.989Z,100.00
2023-01-03T07:34:11.564Z,100.00
2023-01-03T07:36:14.268Z,100.00
2023-01-03T07:38:15.802Z,100.00
2023-01-03T07:40:17.720Z,100.00
2023-01-03T07:42:20.594Z,100.00
2023-01-03T07:44:22.137Z,100.00
2023-01-03T07:46:24.870Z,100.00
2023-01-03T07:48:26.468Z,100.00
2023-01-03T07:50:27.851Z,100.00
2023-01-03T07:52:29.399Z,100.00
2023-01-03T07:54:30.749Z,100.00
2023-01-03T07:56:32.251Z,100.00
2023-01-03T07:58:35.579Z,100.00
2023-01-03T08:00:37.106Z,100.00
2023-01-03T08:02:38.738Z,100.00
2023-01-03T08:04:40.511Z,100.00
2023-01-03T08:06:42.116Z,100.00
2023-01-03T08:08:44.121Z,100.00
2023-01-03T08:10:45.645Z,100.00
2023-01-03T08:12:47.184Z,100.00
2023-01-03T08:14:50.552Z,100.00
2023-01-03T08:16:52.106Z,100.00
2023-01-03T08:18:53.468Z,100.00
2023-01-03T08:20:55.681Z,100.00
2023-01-03T08:22:59.523Z,100.00
2023-01-03T08:25:01.035Z,100.00
2023-01-03T08:27:02.537Z,100.00
2023-01-03T08:29:04.224Z,100.00
2023-01-03T08:31:11.203Z,100.00
2023-01-03T08:33:15.719Z,100.00
2023-01-03T08:35:17.467Z,100.00
2023-01-03T08:37:18.962Z,100.00
2023-01-03T08:39:22.909Z,100.00
2023-01-03T08:41:27.920Z,100.00
2023-01-03T08:43:33.229Z,100.00
2023-01-03T08:45:34.827Z,100.00
2023-01-03T08:47:37.904Z,100.00
2023-01-03T08:49:39.593Z,100.00
2023-01-03T08:51:41.144Z,100.00
2023-01-03T08:53:42.677Z,100.00
2023-01-03T08:55:44.185Z,100.00
2023-01-03T08:57:45.784Z,100.00
2023-01-03T08:59:47.127Z,100.00
2023-01-03T09:01:48.852Z,100.00
2023-01-03T09:03:52.117Z,100.00
2023-01-03T09:05:53.709Z,100.00
2023-01-03T09:07:55.975Z,100.00
2023-01-03T09:09:57.526Z,100.00
2023-01-03T09:11:59.035Z,100.00
2023-01-03T09:14:00.641Z,100.00
2023-01-03T09:16:02.180Z,100.00
2023-01-03T09:18:03.869Z,100.00
2023-01-03T09:20:07.505Z,100.00
2023-01-03T09:22:09.003Z,100.00
2023-01-03T09:24:10.575Z,100.00
2023-01-03T09:26:11.975Z,100.00
2023-01-03T09:28:15.706Z,100.00
2023-01-03T09:30:17.526Z,100.00
2023-01-03T09:32:19.078Z,100.00
2023-01-03T09:34:23.328Z,100.00
2023-01-03T09:36:26.648Z,100.00
2023-01-03T09:38:28.283Z,100.00
2023-01-03T09:40:30.163Z,99.36
2023-01-03T09:42:34.053Z,99.30
2023-01-03T09:44:35.738Z,98.44
2023-01-03T09:46:37.765Z,98.55
2023-01-03T09:48:41.411Z,95.83
2023-01-03T09:51:15.818Z,94.21
2023-01-03T09:53:17.757Z,94.21
2023-01-03T09:55:25.996Z,92.40
2023-01-03T09:57:31.794Z,91.12
2023-01-03T09:59:36.499Z,89.99
2023-01-03T10:01:48.445Z,87.92
2023-01-03T10:03:59.775Z,84.30
2023-01-03T10:06:10.956Z,84.02
2023-01-03T10:08:31.145Z,81.54
2023-01-03T10:10:42.600Z,79.85
2023-01-03T10:12:53.586Z,80.57
2023-01-03T10:15:07.850Z,80.79
2023-01-03T10:17:19.847Z,79.71
2023-01-03T10:19:56.914Z,80.83
2023-01-03T10:22:08.484Z,78.67
2023-01-03T10:24:17.561Z,79.10
2023-01-03T10:26:19.304Z,79.69
2023-01-03T10:28:24.209Z,79.14
2023-01-03T10:30:36.913Z,79.81
2023-01-03T10:33:02.153Z,80.52
2023-01-03T10:35:17.619Z,81.03
2023-01-03T10:37:19.611Z,82.42
2023-01-03T10:39:29.231Z,83.65
2023-01-03T10:41:39.164Z,83.05
2023-01-03T10:43:42.238Z,83.90
2023-01-03T10:45:53.011Z,84.68
2023-01-03T10:47:59.195Z,85.75
2023-01-03T10:50:02.270Z,86.17
2023-01-03T10:52:10.641Z,86.42
2023-01-03T10:54:22.897Z,86.57
2023-01-03T10:56:28.928Z,86.02
2023-01-03T10:58:36.064Z,86.16
2023-01-03T11:00:38.789Z,88.15
2023-01-03T11:02:42.798Z,88.35
2023-01-03T11:04:45.874Z,88.64
2023-01-03T11:07:00.195Z,86.94
2023-01-03T11:09:02.455Z,87.45
2023-01-03T11:11:04.300Z,87.18
2023-01-03T11:13:22.933Z,86.54
2023-01-03T11:15:38.849Z,87.44
2023-01-03T11:17:53.452Z,88.37
2023-01-03T11:19:56.437Z,88.40
2023-01-03T11:22:09.338Z,89.35
2023-01-03T11:24:25.599Z,89.00
2023-01-03T11:26:40.917Z,87.98
2023-01-03T11:29:03.053Z,88.40
2023-01-03T11:31:10.634Z,89.71
2023-01-03T11:33:29.771Z,88.56
2023-01-03T11:35:51.676Z,87.30
2023-01-03T11:38:02.393Z,88.13
2023-01-03T11:40:15.408Z,86.97
2023-01-03T11:42:34.286Z,86.80
2023-01-03T11:45:07.237Z,86.04
2023-01-03T11:47:21.350Z,87.30
2023-01-03T11:49:29.761Z,87.25
2023-01-03T11:51:41.259Z,86.64
2023-01-03T11:53:55.683Z,87.27
2023-01-03T11:56:08.984Z,85.08
2023-01-03T11:58:37.863Z,84.42
2023-01-03T12:00:47.331Z,85.16
2023-01-03T12:03:03.788Z,86.45
2023-01-03T12:05:29.351Z,86.34
2023-01-03T12:07:48.900Z,87.70
2023-01-03T12:09:57.717Z,86.87
2023-01-03T12:12:17.568Z,87.02
2023-01-03T12:14:24.138Z,86.64
2023-01-03T12:16:34.047Z,87.07
2023-01-03T12:18:43.723Z,85.97
2023-01-03T12:20:49.785Z,85.94
2023-01-03T12:22:54.720Z,86.01
2023-01-03T12:25:05.001Z,86.39
2023-01-03T12:27:14.589Z,85.88
2023-01-03T12:29:20.557Z,83.86
2023-01-03T12:31:31.638Z,84.65
2023-01-03T12:33:40.767Z,84.96
2023-01-03T12:35:47.349Z,84.09
2023-01-03T12:37:50.754Z,85.13
2023-01-03T12:39:57.905Z,82.93
2023-01-03T12:42:06.659Z,82.06
2023-01-03T12:44:13.525Z,82.67
2023-01-03T12:46:18.011Z,82.19
2023-01-03T12:48:45.120Z,81.11
2023-01-03T12:50:49.318Z,82.86
2023-01-03T12:52:58.378Z,83.36
2023-01-03T12:55:06.170Z,83.21
2023-01-03T12:57:30.059Z,81.14
2023-01-03T12:59:54.784Z,81.89
2023-01-03T13:02:01.266Z,82.68
2023-01-03T13:04:11.803Z,83.25
2023-01-03T13:06:18.841Z,82.54
2023-01-03T13:08:31.010Z,83.03
2023-01-03T13:10:36.556Z,82.18
2023-01-03T13:12:41.116Z,79.92
2023-01-03T13:14:54.373Z,80.09
2023-01-03T13:17:04.240Z,79.31
2023-01-03T13:19:41.679Z,78.00
2023-01-03T13:22:00.376Z,78.89
2023-01-03T13:24:01.959Z,80.90
2023-01-03T13:26:24.251Z,81.24
2023-01-03T13:28:31.041Z,78.92
2023-01-03T13:30:35.086Z,79.80
2023-01-03T13:32:49.388Z,79.48
2023-01-03T13:35:05.559Z,78.74
2023-01-03T13:37:18.603Z,78.74
2023-01-03T13:39:38.393Z,80.62
2023-01-03T13:41:40.577Z,80.34
2023-01-03T13:43:46.649Z,81.64
2023-01-03T13:45:54.000Z,82.03
2023-01-03T13:47:56.655Z,81.31
2023-01-03T13:49:58.205Z,82.70
2023-01-03T13:51:59.551Z,82.76
2023-01-03T13:54:05.520Z,83.12
2023-01-03T13:56:22.224Z,83.95
2023-01-03T13:58:32.022Z,82.53
2023-01-03T14:00:33.629Z,83.24
2023-01-03T14:03:00.073Z,83.13
2023-01-03T14:05:48.350Z,82.81
2023-01-03T14:08:31.938Z,83.15
2023-01-03T14:11:26.932Z,83.24
2023-01-03T14:13:37.477Z,82.65
2023-01-03T14:15:39.039Z,83.38
2023-01-03T14:17:43.960Z,83.29
2023-01-03T14:19:50.547Z,83.13
2023-01-03T14:21:57.472Z,84.14
2023-01-03T14:24:01.142Z,83.42
2023-01-03T14:26:05.232Z,83.51
2023-01-03T14:28:18.047Z,84.49
2023-01-03T14:30:21.786Z,83.65
2023-01-03T14:32:30.405Z,83.62
2023-01-03T14:34:40.013Z,83.60
2023-01-03T14:36:45.218Z,83.41
2023-01-03T14:38:48.695Z,83.91
2023-01-03T14:40:50.325Z,83.80
2023-01-03T14:42:51.699Z,84.51
2023-01-03T14:44:57.890Z,85.31
2023-01-03T14:47:01.121Z,85.54
2023-01-03T14:49:05.988Z,84.81
2023-01-03T14:51:09.778Z,86.21
2023-01-03T14:53:12.141Z,85.62
2023-01-03T14:55:16.047Z,87.03
2023-01-03T14:57:19.887Z,87.25
2023-01-03T14:59:22.695Z,87.53
2023-01-03T15:01:25.996Z,86.41
2023-01-03T15:03:31.224Z,86.14
2023-01-03T15:05:34.616Z,86.47
2023-01-03T15:07:40.176Z,87.25
2023-01-03T15:09:41.844Z,87.83
2023-01-03T15:11:43.401Z,87.23
2023-01-03T15:13:50.803Z,88.72
2023-01-03T15:15:54.366Z,87.97
2023-01-03T15:18:01.787Z,87.92
2023-01-03T15:20:08.675Z,88.92
2023-01-03T15:22:14.660Z,88.72
2023-01-03T15:24:18.170Z,88.85
2023-01-03T15:26:22.516Z,89.45
2023-01-03T15:28:26.801Z,89.61
2023-01-03T15:30:28.700Z,89.40
2023-01-03T15:32:30.477Z,90.44
2023-01-03T15:34:40.622Z,89.83
2023-01-03T15:36:47.321Z,90.35
2023-01-03T15:38:49.032Z,90.04
2023-01-03T15:40:50.896Z,90.42
2023-01-03T15:42:58.196Z,88.92
2023-01-03T15:45:00.232Z,90.37
2023-01-03T15:47:02.688Z,90.26
2023-01-03T15:49:06.393Z,90.16
2023-01-03T15:51:09.672Z,91.21
2023-01-03T15:53:21.639Z,90.39
2023-01-03T15:55:23.805Z,90.55
2023-01-03T15:57:32.480Z,90.76
2023-01-03T15:59:42.958Z,91.20
2023-01-03T16:01:45.134Z,92.31
2023-01-03T16:03:48.239Z,92.42
2023-01-03T16:05:50.031Z,93.16
2023-01-03T16:07:52.711Z,92.63
2023-01-03T16:09:54.271Z,92.98
2023-01-03T16:11:57.316Z,93.21
2023-01-03T16:14:03.152Z,92.99
2023-01-03T16:16:06.585Z,94.08
2023-01-03T16:18:08.909Z,93.58
2023-01-03T16:20:14.791Z,94.29
2023-01-03T16:22:35.101Z,94.50
2023-01-03T16:24:39.536Z,94.36
2023-01-03T16:26:41.085Z,92.81
2023-01-03T16:28:42.592Z,94.23
2023-01-03T16:30:44.342Z,95.61
2023-01-03T16:32:45.901Z,94.60
2023-01-03T16:34:47.514Z,94.71
2023-01-03T16:36:49.297Z,95.12
2023-01-03T16:38:50.818Z,95.09
2023-01-03T16:40:53.708Z,95.87
2023-01-03T16:42:55.244Z,95.86
2023-01-03T16:44:56.903Z,96.32
2023-01-03T16:46:58.385Z,96.84
2023-01-03T16:49:00.094Z,97.51
2023-01-03T16:51:01.638Z,98.73
2023-01-03T16:53:06.384Z,98.96
2023-01-03T16:55:14.905Z,99.14
2023-01-03T16:57:19.026Z,98.55
2023-01-03T16:59:22.189Z,98.05
2023-01-03T17:01:23.829Z,97.85
2023-01-03T17:03:25.563Z,99.16
2023-01-03T17:05:29.060Z,98.80
2023-01-03T17:07:30.647Z,99.14
2023-01-03T17:09:34.445Z,99.40
2023-01-03T17:11:36.037Z,100.00
2023-01-03T17:13:39.567Z,100.00
2023-01-03T17:15:41.394Z,100.00
2023-01-03T17:17:43.304Z,100.00
2023-01-03T17:20:04.066Z,99.66
2023-01-03T17:22:13.548Z,99.72
2023-01-03T17:24:19.510Z,99.90
2023-01-03T17:26:22.931Z,99.25
2023-01-03T17:28:24.569Z,98.93
2023-01-03T17:30:28.288Z,97.84
2023-01-03T17:32:30.190Z,98.59
2023-01-03T17:34:32.130Z,98.26
2023-01-03T17:36:34.164Z,97.72
2023-01-03T17:38:35.871Z,98.42
2023-01-03T17:40:41.535Z,97.93
2023-01-03T17:42:43.484Z,97.20
2023-01-03T17:44:45.726Z,99.36
2023-01-03T17:46:48.733Z,99.09
2023-01-03T17:48:50.408Z,99.94
2023-01-03T17:50:52.067Z,99.12
2023-01-03T17:52:55.905Z,100.00
2023-01-03T17:54:58.336Z,100.00
2023-01-03T17:57:00.165Z,100.00
2023-01-03T17:59:01.719Z,100.00
2023-01-03T18:01:03.436Z,98.32
2023-01-03T18:03:06.547Z,99.06
2023-01-03T18:05:21.342Z,98.21
2023-01-03T18:07:27.814Z,98.05
2023-01-03T18:09:32.162Z,95.70
2023-01-03T18:11:33.770Z,97.67
2023-01-03T18:13:36.156Z,98.24
2023-01-03T18:15:37.705Z,98.71
2023-01-03T18:17:39.021Z,96.77
2023-01-03T18:19:42.197Z,98.90
2023-01-03T18:21:43.719Z,99.17
2023-01-03T18:23:45.630Z,99.25
2023-01-03T18:25:47.352Z,99.44
2023-01-03T18:27:51.225Z,100.00
2023-01-03T18:29:53.307Z,99.46
2023-01-03T18:31:55.827Z,98.40
2023-01-03T18:33:57.669Z,98.58
2023-01-03T18:36:01.179Z,98.32
2023-01-03T18:38:02.852Z,100.00
2023-01-03T18:40:15.702Z,100.00
2023-01-03T18:42:17.377Z,100.00
2023-01-03T18:44:21.983Z,98.63
2023-01-03T18:46:24.376Z,98.81
2023-01-03T18:48:26.212Z,99.79
2023-01-03T18:50:28.391Z,100.00
2023-01-03T18:52:36.564Z,100.00
2023-01-03T18:54:38.975Z,100.00
2023-01-03T18:56:43.123Z,100.00
2023-01-03T18:58:44.766Z,100.00
2023-01-03T19:00:46.634Z,100.00
2023-01-03T19:02:49.340Z,100.00
2023-01-03T19:04:52.041Z,100.00
2023-01-03T19:06:54.209Z,100.00
2023-01-03T19:08:59.754Z,100.00
2023-01-03T19:11:13.388Z,100.00
2023-01-03T19:13:25.635Z,100.00
2023-01-03T19:15:28.189Z,100.00
2023-01-03T19:17:30.302Z,100.00
2023-01-03T19:19:31.879Z,100.00
2023-01-03T19:21:34.248Z,100.00
2023-01-03T19:23:35.868Z,100.00
2023-01-03T19:25:40.612Z,100.00
2023-01-03T19:27:45.189Z,99.84
2023-01-03T19:29:47.369Z,99.81
2023-01-03T19:31:51.266Z,98.82
2023-01-03T19:33:52.964Z,99.27
2023-01-03T19:35:54.614Z,98.88
2023-01-03T19:37:56.375Z,97.94
2023-01-03T19:39:57.950Z,98.14
2023-01-03T19:42:00.749Z,99.23
2023-01-03T19:44:02.346Z,99.67
2023-01-03T19:46:03.959Z,99.99
2023-01-03T19:48:18.457Z,98.53
2023-01-03T19:50:21.983Z,99.34
2023-01-03T19:52:23.629Z,98.81
2023-01-03T19:54:25.007Z,99.30
2023-01-03T19:56:26.604Z,98.60
2023-01-03T19:58:31.282Z,97.60
2023-01-03T20:00:32.941Z,98.13
2023-01-03T20:02:37.633Z,98.87
2023-01-03T20:04:39.462Z,98.57
2023-01-03T20:06:41.424Z,99.35
2023-01-03T20:08:43.292Z,99.50
2023-01-03T20:10:45.423Z,100.00
2023-01-03T20:12:48.130Z,99.30
2023-01-03T20:14:52.902Z,100.00
2023-01-03T20:16:54.497Z,99.15
2023-01-03T20:18:55.911Z,100.00
2023-01-03T20:20:59.924Z,100.00
2023-01-03T20:23:06.708Z,100.00
2023-01-03T20:25:22.338Z,100.00
2023-01-03T20:27:24.282Z,100.00
2023-01-03T20:29:25.902Z,100.00
2023-01-03T20:31:28.680Z,100.00
2023-01-03T20:33:30.341Z,100.00
2023-01-03T20:37:58.865Z,98.61
2023-01-03T20:40:00.940Z,98.71
2023-01-03T20:42:03.902Z,99.45
2023-01-03T20:44:06.030Z,100.00
2023-01-03T20:46:15.969Z,98.67
2023-01-03T20:48:25.008Z,100.00
2023-01-03T20:50:28.945Z,100.00
2023-01-03T20:52:30.530Z,100.00
2023-01-03T20:54:31.969Z,100.00
2023-01-03T20:56:33.604Z,100.00
2023-01-03T20:58:34.953Z,100.00
2023-01-03T21:00:38.356Z,98.48
2023-01-03T21:02:40.160Z,98.65
2023-01-03T21:04:43.381Z,99.51
2023-01-03T21:06:45.290Z,100.00
2023-01-03T21:08:46.982Z,100.00
2023-01-03T21:10:48.831Z,100.00
2023-01-03T21:12:50.464Z,100.00
2023-01-03T21:14:52.307Z,99.71
2023-01-03T21:16:53.926Z,100.00
2023-01-03T21:18:56.135Z,100.00
2023-01-03T21:21:05.087Z,100.00
2023-01-03T21:23:07.077Z,100.00
2023-01-03T21:25:18.128Z,100.00
2023-01-03T21:27:19.679Z,99.54
2023-01-03T21:29:21.061Z,98.81
2023-01-03T21:31:23.200Z,100.00
2023-01-03T21:33:24.798Z,99.49
2023-01-03T21:35:26.190Z,100.00
2023-01-03T21:37:29.319Z,100.00
2023-01-03T21:39:30.911Z,100.00
2023-01-03T21:41:33.227Z,99.19
2023-01-03T21:43:34.957Z,99.11
2023-01-03T21:45:39.613Z,99.68
2023-01-03T21:47:41.222Z,100.00
2023-01-03T21:49:42.624Z,100.00
2023-01-03T21:51:44.314Z,100.00
2023-01-03T21:53:47.415Z,99.94
2023-01-03T21:55:49.911Z,98.95
2023-01-03T21:57:51.757Z,99.80
2023-01-03T21:59:53.309Z,99.51
2023-01-03T22:01:54.892Z,100.00
2023-01-03T22:03:56.786Z,99.57
2023-01-03T22:06:10.063Z,100.00
2023-01-03T22:08:11.824Z,99.48
2023-01-03T22:10:14.785Z,100.00
2023-01-03T22:12:17.076Z,100.00
2023-01-03T22:14:18.701Z,100.00
2023-01-03T22:16:20.193Z,100.00
2023-01-03T22:18:23.050Z,99.64
2023-01-03T22:20:26.493Z,100.00
2023-01-03T22:22:28.147Z,100.00
2023-01-03T22:24:29.814Z,100.00
2023-01-03T22:26:34.576Z,100.00
2023-01-03T22:28:38.045Z,100.00
2023-01-03T22:30:39.961Z,100.00
2023-01-03T22:32:41.855Z,100.00
2023-01-03T22:34:43.437Z,100.00
2023-01-03T22:36:44.824Z,100.00
2023-01-03T22:38:46.387Z,100.00
2023-01-03T22:40:47.792Z,100.00
2023-01-03T22:42:50.653Z,100.00
2023-01-03T22:44:52.201Z,100.00
2023-01-03T22:46:53.762Z,100.00
2023-01-03T22:48:57.762Z,100.00
2023-01-03T22:51:02.012Z,100.00
2023-01-03T22:53:03.572Z,100.00
2023-01-03T22:55:07.268Z,100.00
2023-01-03T22:57:09.048Z,100.00
2023-01-03T22:59:13.508Z,100.00
2023-01-03T23:01:16.936Z,100.00
2023-01-03T23:03:18.572Z,100.00
2023-01-03T23:05:20.335Z,100.00
2023-01-03T23:07:21.921Z,100.00
2023-01-03T23:09:25.794Z,100.00
2023-01-03T23:11:34.024Z,100.00
2023-01-03T23:13:36.222Z,100.00
2023-01-03T23:15:42.735Z,100.00
2023-01-03T23:17:44.322Z,100.00
2023-01-03T23:19:45.985Z,100.00
2023-01-03T23:21:47.965Z,100.00
2023-01-03T23:23:49.891Z,100.00
2023-01-03T23:25:51.438Z,100.00
2023-01-03T23:27:53.010Z,100.00
2023-01-03T23:29:54.575Z,100.00
2023-01-03T23:31:57.750Z,100.00
2023-01-03T23:34:00.102Z,100.00
2023-01-03T23:36:04.645Z,100.00
2023-01-03T23:38:06.187Z,100.00
2023-01-03T23:40:09.972Z,100.00
2023-01-03T23:42:11.685Z,100.00
2023-01-03T23:44:15.903Z,100.00
2023-01-03T23:46:19.174Z,100.00
2023-01-03T23:48:22.966Z,100.00
2023-01-03T23:50:24.574Z,100.00
2023-01-03T23:52:26.058Z,100.00
2023-01-03T23:54:30.404Z,100.00
2023-01-03T23:56:31.995Z,100.00
2023-01-03T23:58:36.166Z,100.00
